Tiempo atmosférico en la estación meteorológica de Seira, Huesca (825 m.)



Fecha
DESCASC
Temp. máxima en grados centígrados (hora)
DESCASC
Temp. mínima en grados centígrados (hora)
DESCASC
Temp. media en grados centígrados
DESCASC
Racha de viento máxima en m/sg (hora)
DESCASC
Velocidad máxima media en intervalos de 10 minutos(hora)
DESCASC
Precipitaciones diarias en mm
DESCASC
Precipitaciones de 00:00 a 06:00 en mm
DESCASC
Precipitaciones de 06:00 a 12:00 en mm
DESCASC
Precipitaciones de 12:00 a 18:00 en mm
DESCASC
Precipitaciones de 18:00 a 24:00 en mm
DESCASC
22-04-2019 15.9 (15:40) 5.4 (07:10) 10.6 5.56 (16:30) 3.61 (16:30) 0.8 0 0.6 0.2 0
21-04-2019 13.3 (16:10) 6.5 (06:20) 9.9 5.28 (16:40) 2.5 (16:00) 4 3 1 0 0
20-04-2019 19.2 (14:30) 4.9 (07:20) 12.1 8.33 (14:30) 5.28 (13:40) 1 0 0 0 1
19-04-2019 19.4 (18:00) 7.8 (06:50) 13.6 7.5 (17:10) 4.44 (17:10) 0 0 0 0 0
18-04-2019 20.4 (15:20) 6.2 (00:00) 13.3 7.22 (17:00) 2.78 (16:20) 0 0 0 0 0
17-04-2019 19.3 (16:10) 6.3 (00:00) 12.8 7.5 (16:50) 4.72 (16:40) 0 0 0 0 0
16-04-2019 17.1 (16:30) 8.5 (00:00) 12.8 8.06 (16:40) 5.28 (17:00) 2.4 2.4 0 0 0
15-04-2019 19.9 (17:10) 5.6 (00:00) 12.7 10.83 (21:40) 6.11 (13:30) 2.2 0 0 0 2.2
14-04-2019 20.3 (18:20) 2.7 (00:00) 11.5 9.72 (18:20) 5.56 (12:20) 0 0 0 0 0
13-04-2019 20.5 (17:10) -1.2 (-00:0) 9.6 8.61 (15:10) 3.89 (13:00) 0 0 0 0 0
12-04-2019 18 (15:20) 4 (00:00) 11 9.17 (16:50) 4.17 (17:20) 0 0 0 0 0
11-04-2019 13 (15:40) 3.9 (00:00) 8.5 11.11 (06:10) 3.61 (12:30) 0 0 0 0 0
10-04-2019 14.8 (14:40) 0.7 (00:00) 7.8 9.72 (19:10) 3.89 (16:10) 0 0 0 0 0
09-04-2019 15.3 (13:30) 2.3 (00:00) 8.8 8.89 (13:40) 3.89 (14:40) 1.6 0 0 0 1.6
08-04-2019 15.1 (16:40) 0.9 (00:00) 8 8.61 (16:40) 4.17 (16:40) 0 0 0 0 0
07-04-2019 12.6 (16:30) -0.5 (-00:0) 6.1 7.22 (16:40) 4.44 (16:40) 0 0 0 0 0
06-04-2019 10.2 (16:10) 0.3 (00:00) 5.2 6.67 (14:50) 2.78 (15:00) 17.6 8.8 3 1.6 4.2
05-04-2019 7.5 (16:00) 0.9 (00:00) 4.2 3.89 (20:20) 1.39 (20:20) 10.6 0 0.6 0.2 9.8
04-04-2019 12.3 (16:20) -3.9 (-00:0) 4.2 8.61 (15:10) 3.89 (12:30) 0 0 0 0 0
03-04-2019 9.9 (17:30) 1.4 (00:00) 5.6 9.17 (16:00) 4.44 (17:10) 2.6 0 2.6 0 0
02-04-2019 17.2 (15:20) 5.1 (00:00) 11.2 9.44 (15:40) 4.17 (14:30) 0.4 0.2 0.2 0 0
01-04-2019 15.1 (15:10) 6.3 (00:00) 10.7 6.67 (15:40) 4.72 (15:40) 0 0 0 0 0
31-03-2019 15.4 (17:00) 1.1 (00:00) 8.2 8.89 (15:00) 5.83 (15:10) 0 0 0 0 0
30-03-2019 16.1 (16:00) 1.1 (00:00) 8.6 8.61 (14:10) 5 (13:30) 0 0 0 0 0
29-03-2019 14.5 (15:00) 2.2 (00:00) 8.4 6.39 (16:00) 3.61 (12:10) 0 0 0 0 0
28-03-2019 17.2 (14:20) -0.8 (-00:0) 8.2 8.89 (14:40) 5 (13:40) 0 0 0 0 0
27-03-2019 17.9 (15:10) -2.5 (-00:0) 7.7 8.89 (13:40) 5.83 (13:10) 0 0 0 0 0
26-03-2019 17.5 (14:00) 1.1 (00:00) 9.3 10.56 (15:10) 3.33 (15:20) 0 0 0 0 0
25-03-2019 19.7 (13:30) 2.9 (00:00) 11.3 9.44 (15:10) 4.44 (14:00) 0 0 0 0 0

Gráficas

Temp. máximas Temp. mínimas Temp. medias Precipitaciones Rachas de viento máximas Velocidades máximas media en intervalos de 10 minutos

Datos horarios

Fecha y hora oficial Temperatura (ºC) Velocidad del viento (km/h) Dirección del viento Racha (km/h) Dirección de racha Precipitación (mm) Presión (hPa) Tendencia (hPa) Humedad (%)
2019-04-23 23:00:00 5.8 2 Sudeste 6 Sudoeste 0.2 -- -- 95
2019-04-23 22:00:00 6.4 4 Noroeste 14 Sudoeste 3.8 -- -- 91
2019-04-23 21:00:00 7.6 2 Sudeste 4 Nordeste 7 -- -- 96
2019-04-23 20:00:00 8.1 3 Sudeste 11 Sudoeste 4.4 -- -- 96
2019-04-23 19:00:00 8.5 2 Sudeste 33 Sudoeste 8.6 -- -- 93
2019-04-23 18:00:00 12.7 2 Sudeste 4 Sur 0 -- -- 84
2019-04-23 17:00:00 14.4 2 Oeste 11 Sudoeste 0 -- -- 68
2019-04-23 16:00:00 13.7 3 Sur 8 Norte 0 -- -- 70
2019-04-23 15:00:00 12 3 Norte 9 Sur 0 -- -- 85
2019-04-23 14:00:00 11.1 3 Sur 9 Sudoeste 0.2 -- -- 87
2019-04-23 13:00:00 10.8 0 Calma 7 Sudeste 0.4 -- -- 93
2019-04-23 12:00:00 10.4 0 Calma 6 Sur 0.4 -- -- 94
2019-04-23 11:00:00 9.6 2 Oeste 5 Oeste 1.2 -- -- 97
2019-04-23 10:00:00 9.3 0 Calma 4 Sur 0.2 -- -- 98
2019-04-23 09:00:00 8.9 0 Calma 3 Norte 0 -- -- 98
2019-04-23 08:00:00 8.5 0 Calma 3 Norte 0 -- -- 98
2019-04-23 07:00:00 8.5 2 Sudeste 3 Sudoeste 0 -- -- 97
2019-04-23 06:00:00 8.6 0 Calma 3 Sudeste 0.8 -- -- 97
2019-04-23 05:00:00 8.7 0 Calma 3 Sudeste 0 -- -- 94
2019-04-23 04:00:00 9 0 Calma 6 Sudoeste 0 -- -- 94
2019-04-23 03:00:00 9.1 0 Calma 3 Este 0 -- -- 92
2019-04-23 02:00:00 9.5 0 Calma 3 Nordeste 0 -- -- 91
2019-04-23 01:00:00 9.6 0 Calma 2 Nordeste 0 -- -- 90
2019-04-23 00:00:00 10.5 3 Sudeste 10 Sudoeste 0 -- -- 85
2019-04-22 23:00:00 10.7 2 Sur 5 Sur 0 -- -- 82
2019-04-22 22:00:00 10.4 0 Calma 3 Este 0 -- -- 83
2019-04-22 21:00:00 11.7 2 Este 9 Sudeste 0 -- -- 77
2019-04-22 20:00:00 13.7 4 Sur 14 Sudoeste 0 -- -- 64
2019-04-22 19:00:00 14.4 10 Sudoeste 18 Sudoeste 0 -- -- 60
2019-04-22 18:00:00 14.7 4 Sudoeste 18 Sudoeste 0 -- -- 63
2019-04-22 17:00:00 15.3 8 Sudoeste 20 Sudoeste 0 -- -- 58
2019-04-22 16:00:00 15.8 11 Sudoeste 18 Sudoeste 0 -- -- 53
2019-04-22 15:00:00 15.1 3 Oeste 9 Sudoeste 0 -- -- 62
2019-04-22 14:00:00 12.5 5 Sudoeste 9 Sudoeste 0 -- -- 76
2019-04-22 13:00:00 10.5 0 Calma 5 Sudoeste 0.2 -- -- 88
2019-04-22 12:00:00 10.1 2 Norte 6 Norte 0 -- -- 86
2019-04-22 11:00:00 8.9 0 Calma 4 Sur 0 -- -- 91
2019-04-22 10:00:00 7.5 0 Calma 4 Sur 0.2 -- -- 97
2019-04-22 09:00:00 6.8 0 Calma 5 Sudoeste 0.4 -- -- 98
2019-04-22 08:00:00 5.8 2 Sur 4 Sur 0 -- -- 98
2019-04-22 07:00:00 5.5 0 Calma 4 Norte 0 -- -- 96
2019-04-22 06:00:00 5.8 0 Calma 5 Sudoeste 0 -- -- 96
2019-04-22 05:00:00 5.8 2 Sur 4 Sur 0 -- -- 97
2019-04-22 04:00:00 5.7 0 Calma 3 Norte 0 -- -- 96
2019-04-22 03:00:00 5.9 0 Calma 3 Este 0 -- -- 95
2019-04-22 02:00:00 6.8 0 Calma 3 Sudeste 0 -- -- 93
2019-04-22 01:00:00 8.1 0 Calma 2 Nordeste 0 -- -- 91
2019-04-22 00:00:00 8.6 0 Calma 3 Sur 0 -- -- 91
2019-04-21 23:00:00 8.9 0 Calma 3 Sudeste 0 -- -- 91
2019-04-21 22:00:00 9.1 0 Calma 4 Sudeste 0 -- -- 89
2019-04-21 21:00:00 9.4 0 Calma 3 Sudeste 0 -- -- 86
2019-04-21 20:00:00 11.1 0 Calma 3 Este 0 -- -- 80
2019-04-21 19:00:00 11.8 2 Sur 8 Sudoeste 0 -- -- 70
2019-04-21 18:00:00 11.9 3 Sudoeste 17 Oeste 0 -- -- 69
2019-04-21 17:00:00 13 7 Sudoeste 19 Sudoeste 0 -- -- 64
2019-04-21 16:00:00 13.1 9 Sudoeste 17 Sudoeste 0 -- -- 67
2019-04-21 15:00:00 12.3 3 Oeste 6 Noroeste 0 -- -- 77
2019-04-21 14:00:00 10.8 2 Sudoeste 5 Sudoeste 0 -- -- 79
2019-04-21 13:00:00 9.8 0 Calma 5 Sur 0 -- -- 86
2019-04-21 12:00:00 8.5 2 Norte 5 Norte 0.2 -- -- 93
2019-04-21 11:00:00 7.9 2 Sudoeste 4 Sur 0.4 -- -- 94
2019-04-21 10:00:00 7.5 0 Calma 3 Sur 0.4 -- -- 94
2019-04-21 09:00:00 6.9 0 Calma 3 Nordeste 0 -- -- 97
2019-04-21 08:00:00 6.6 2 Sur 4 Sur 0 -- -- 97
2019-04-21 07:00:00 6.6 2 Nordeste 10 Norte 0 -- -- 95
2019-04-21 06:00:00 6.7 0 Calma 3 Este 0.2 -- -- 96
2019-04-21 05:00:00 7.2 0 Calma 3 Sur 0 -- -- 97
2019-04-21 04:00:00 7.4 0 Calma 10 Sur 1.6 -- -- 96
2019-04-21 03:00:00 7.6 2 Sudeste 13 Sur 0.6 -- -- 94
2019-04-21 02:00:00 8.2 6 Sur 15 Sur 0.6 -- -- 91
2019-04-21 01:00:00 9.3 3 Sudoeste 17 Sudoeste 0 -- -- 83
2019-04-21 00:00:00 9.4 6 Sur 24 Sudoeste 0 -- -- 81
2019-04-20 23:00:00 9.4 4 Sudoeste 15 Sur 0 -- -- 85
2019-04-20 22:00:00 9.5 2 Sudeste 3 Sudeste 0.4 -- -- 92
2019-04-20 21:00:00 10.3 0 Calma 11 Sur 0.6 -- -- 85
2019-04-20 20:00:00 13.3 2 Sudeste 15 Sudeste 0 -- -- 66
2019-04-20 19:00:00 15.2 6 Sur 19 Sudoeste 0 -- -- 48
2019-04-20 18:00:00 16.8 4 Sudoeste 16 Sudoeste 0 -- -- 46
2019-04-20 17:00:00 18 8 Sudoeste 24 Sudoeste 0 -- -- 43
2019-04-20 16:00:00 17.5 10 Sudoeste 28 Sudoeste 0 -- -- 43
2019-04-20 15:00:00 18.4 10 Sudoeste 30 Oeste 0 -- -- 44
2019-04-20 14:00:00 18.6 17 Sudoeste 29 Sudoeste 0 -- -- 41
2019-04-20 13:00:00 18 14 Sudoeste 23 Sudoeste 0 -- -- 42
2019-04-20 12:00:00 16.9 3 Norte 17 Sur 0 -- -- 47
2019-04-20 11:00:00 12.3 2 Oeste 5 Noroeste 0 -- -- 64
2019-04-20 10:00:00 9.3 3 Norte 9 Norte 0 -- -- 76
2019-04-20 09:00:00 6.5 0 Calma 9 Nordeste 0 -- -- 87
2019-04-20 08:00:00 5.1 0 Calma 4 Sur 0 -- -- 90
2019-04-20 07:00:00 5.1 0 Calma 2 Sudeste 0 -- -- 88
2019-04-20 06:00:00 5.5 0 Calma 4 Sudeste 0 -- -- 88
2019-04-20 05:00:00 5.5 0 Calma 3 Sur 0 -- -- 86
2019-04-20 04:00:00 5.9 0 Calma 3 Sur 0 -- -- 86
2019-04-20 03:00:00 6.5 0 Calma 2 Noroeste 0 -- -- 84
2019-04-20 02:00:00 7.2 0 Calma 3 Este 0 -- -- 82
2019-04-20 01:00:00 7.8 0 Calma 3 Nordeste 0 -- -- 81
2019-04-20 00:00:00 8.7 0 Calma 3 Sudeste 0 -- -- 76
2019-04-19 23:00:00 10.1 0 Calma 3 Sur 0 -- -- 71
2019-04-19 22:00:00 11.2 0 Calma 4 Sur 0 -- -- 67
2019-04-19 21:00:00 13.1 0 Calma 5 Sur 0 -- -- 62
2019-04-19 20:00:00 16.3 4 Sur 18 Sur 0 -- -- 48
2019-04-19 19:00:00 18.5 11 Sudoeste 24 Sudoeste 0 -- -- 39
2019-04-19 18:00:00 19.4 8 Sudoeste 27 Sudoeste 0 -- -- 37
2019-04-19 17:00:00 18.4 15 Sudoeste 25 Sudoeste 0 -- -- 36
2019-04-19 16:00:00 17.6 9 Sudoeste 17 Sudoeste 0 -- -- 38
2019-04-19 15:00:00 15.9 8 Sur 15 Sur 0 -- -- 44
2019-04-19 14:00:00 15.4 6 Sudoeste 13 Sur 0 -- -- 47
2019-04-19 13:00:00 14.9 2 Noroeste 10 Nordeste 0 -- -- 49
2019-04-19 12:00:00 13.8 0 Calma 12 Norte 0 -- -- 54
2019-04-19 11:00:00 12.4 4 Nordeste 14 Norte 0 -- -- 58
2019-04-19 10:00:00 11.1 3 Noroeste 9 Norte 0 -- -- 64
2019-04-19 09:00:00 9.4 2 Sur 9 Este 0 -- -- 68
2019-04-19 08:00:00 8.5 2 Sur 8 Sur 0 -- -- 72
2019-04-19 07:00:00 8.2 0 Calma 4 Norte 0 -- -- 73
2019-04-19 06:00:00 8.1 2 Nordeste 5 Este 0 -- -- 76
2019-04-19 05:00:00 8.5 3 Sudeste 5 Sudeste 0 -- -- 74
2019-04-19 04:00:00 9.7 0 Calma 5 Sudeste 0 -- -- 70
2019-04-19 03:00:00 10.7 2 Nordeste 5 Sudeste 0 -- -- 67
2019-04-19 02:00:00 11.2 3 Norte 9 Oeste 0 -- -- 71
2019-04-19 01:00:00 10.7 0 Calma 4 Sur 0 -- -- 78
2019-04-19 00:00:00 11.2 0 Calma 4 Sudoeste 0 -- -- 76
2019-04-18 23:00:00 11.9 0 Calma 5 Sudeste 0 -- -- 71
2019-04-18 22:00:00 13 0 Calma 10 Sudoeste 0 -- -- 70
2019-04-18 21:00:00 14.4 3 Sudeste 15 Sudoeste 0 -- -- 63
2019-04-18 20:00:00 15.4 3 Nordeste 17 Sudoeste 0 -- -- 62
2019-04-18 19:00:00 16.3 6 Sur 16 Sur 0 -- -- 54
2019-04-18 18:00:00 17.2 2 Norte 21 Sur 0 -- -- 51
2019-04-18 17:00:00 18 9 Sur 26 Sudoeste 0 -- -- 49
2019-04-18 16:00:00 19.6 4 Sur 18 Sudoeste 0 -- -- 42
2019-04-18 15:00:00 19.8 8 Norte 22 Nordeste 0 -- -- 39
2019-04-18 14:00:00 15.9 3 Sur 8 Sudoeste 0 -- -- 53
2019-04-18 13:00:00 14.6 0 Calma 4 Norte 0 -- -- 68
2019-04-18 12:00:00 14.6 4 Norte 8 Noroeste 0 -- -- 57
2019-04-18 11:00:00 13.3 4 Norte 11 Sur 0 -- -- 67
2019-04-18 10:00:00 9.9 4 Sudoeste 9 Sudoeste 0 -- -- 83
2019-04-18 09:00:00 7.7 0 Calma 4 Oeste 0 -- -- 93
2019-04-18 08:00:00 6.6 2 Norte 5 Norte 0 -- -- 95
2019-04-18 07:00:00 6.5 3 Nordeste 5 Norte 0 -- -- 94
2019-04-18 06:00:00 6.3 0 Calma 4 Nordeste 0 -- -- 94
2019-04-18 05:00:00 6.8 0 Calma 3 Sudeste 0 -- -- 92
2019-04-18 04:00:00 7.6 0 Calma 4 Sudeste 0 -- -- 90
2019-04-18 03:00:00 8.5 2 Sudoeste 5 Sudoeste 0 -- -- 88
2019-04-18 02:00:00 9.1 0 Calma 4 Sur 0 -- -- 85
2019-04-18 01:00:00 9.2 2 Este 3 Sudeste 0 -- -- 84
2019-04-18 00:00:00 9.7 0 Calma 3 Nordeste 0 -- -- 82
2019-04-17 23:00:00 10.4 0 Calma 3 Este 0 -- -- 79
2019-04-17 22:00:00 11.8 0 Calma 3 Este 0 -- -- 74
2019-04-17 21:00:00 14.1 0 Calma 3 Este 0 -- -- 66
2019-04-17 20:00:00 16.8 2 Este 17 Sudoeste 0 -- -- 59
2019-04-17 19:00:00 18.7 12 Sudoeste 22 Sudoeste 0 -- -- 45
2019-04-17 18:00:00 19 12 Sudoeste 26 Sudoeste 0 -- -- 46
2019-04-17 17:00:00 19 16 Sudoeste 27 Sudoeste 0 -- -- 46
2019-04-17 16:00:00 19.1 12 Sudoeste 26 Sudoeste 0 -- -- 48
2019-04-17 15:00:00 18 10 Sudoeste 18 Sudoeste 0 -- -- 52
2019-04-17 14:00:00 17.3 8 Sudoeste 25 Sudoeste 0 -- -- 54
2019-04-17 13:00:00 15.4 14 Sudoeste 26 Sudoeste 0 -- -- 57
2019-04-17 12:00:00 15.3 13 Sudoeste 21 Sudoeste 0 -- -- 55
2019-04-17 11:00:00 12.8 3 Noroeste 7 Oeste 0 -- -- 67
2019-04-17 10:00:00 9.4 0 Calma 4 Norte 0 -- -- 84
2019-04-17 09:00:00 7 0 Calma 3 Nordeste 0 -- -- 96
2019-04-17 08:00:00 6.4 0 Calma 3 Nordeste 0 -- -- 94
2019-04-17 07:00:00 7.2 0 Calma 2 Nordeste 0 -- -- 92
2019-04-17 06:00:00 8.2 0 Calma 2 Nordeste 0 -- -- 90
2019-04-17 05:00:00 8.2 0 Calma 2 Sudoeste 0 -- -- 89
2019-04-17 04:00:00 8 0 Calma 3 Sudeste 0 -- -- 89
2019-04-17 03:00:00 7.6 0 Calma 3 Sudeste 0 -- -- 90
2019-04-17 02:00:00 7.1 0 Calma 3 Sudeste 0 -- -- 90
2019-04-17 01:00:00 7.7 0 Calma 4 Este 0 -- -- 86
2019-04-17 00:00:00 9.6 0 Calma 11 Sudoeste 0 -- -- 79
2019-04-16 23:00:00 12.7 4 Sudoeste 17 Sudoeste 0 -- -- 66
2019-04-16 22:00:00 13.5 8 Sudoeste 20 Sudoeste 0 -- -- 64
2019-04-16 21:00:00 13.6 5 Sudoeste 16 Sudoeste 0 -- -- 67
2019-04-16 20:00:00 14.2 6 Sur 14 Sur 0 -- -- 61
2019-04-16 19:00:00 15.2 6 Sudoeste 19 Sudoeste 0 -- -- 57
2019-04-16 18:00:00 15.8 16 Sudoeste 29 Sudoeste 0 -- -- 55
2019-04-16 17:00:00 16.9 19 Sudoeste 29 Sudoeste 0 -- -- 52
2019-04-16 16:00:00 16.8 12 Sudoeste 28 Sur 0 -- -- 52
2019-04-16 15:00:00 15.9 9 Sudoeste 28 Sudoeste 0 -- -- 59
2019-04-16 14:00:00 14.7 14 Sudoeste 27 Sudoeste 0 -- -- 64
2019-04-16 13:00:00 13.3 12 Sudoeste 28 Sudoeste 0 -- -- 70
2019-04-16 12:00:00 12.3 8 Sudoeste 22 Sudoeste 0 -- -- 76
2019-04-16 11:00:00 11.1 5 Sur 13 Sudoeste 0 -- -- 83
2019-04-16 10:00:00 9.9 6 Sudoeste 10 Sudoeste 0 -- -- 89
2019-04-16 09:00:00 8.7 5 Sudoeste 10 Sudeste 0 -- -- 92
2019-04-16 08:00:00 8.6 3 Nordeste 13 Sudeste 0 -- -- 95
2019-04-16 07:00:00 8.7 0 Calma 4 Sudoeste 0 -- -- 97
2019-04-16 06:00:00 8.7 0 Calma 4 Sur 0 -- -- 97
2019-04-16 05:00:00 8.6 0 Calma 4 Sudoeste 0 -- -- 97
2019-04-16 04:00:00 8.6 2 Sudeste 8 Sur 0 -- -- 97
2019-04-16 03:00:00 9.1 0 Calma 9 Sur 0 -- -- 96
2019-04-16 02:00:00 9.1 0 Calma 7 Sur 0 -- -- 96
2019-04-16 01:00:00 9.9 3 Noroeste 8 Noroeste 2.4 -- -- 94
2019-04-16 00:00:00 10.4 3 Noroeste 18 Sur 1 -- -- 91
2019-04-15 23:00:00 10.5 6 Norte 15 Nordeste 0.8 -- -- 86
2019-04-15 22:00:00 12.5 9 Sur 39 Sudoeste 0.4 -- -- 74
2019-04-15 21:00:00 14.7 8 Sudoeste 20 Oeste 0 -- -- 63
2019-04-15 20:00:00 16 10 Sur 26 Sur 0 -- -- 60
2019-04-15 19:00:00 18.1 8 Sur 29 Sudoeste 0 -- -- 54
2019-04-15 18:00:00 19.4 7 Sudoeste 25 Sudoeste 0 -- -- 50
2019-04-15 17:00:00 19.7 13 Sudoeste 26 Sudoeste 0 -- -- 51
2019-04-15 16:00:00 19.1 12 Sudoeste 29 Sudoeste 0 -- -- 53
2019-04-15 15:00:00 18.5 17 Sudoeste 32 Sudoeste 0 -- -- 56
2019-04-15 14:00:00 18.4 16 Sudoeste 33 Sudoeste 0 -- -- 53
2019-04-15 13:00:00 17.9 16 Sudoeste 28 Sudoeste 0 -- -- 51
2019-04-15 12:00:00 16.3 12 Sudoeste 27 Sudoeste 0 -- -- 53
2019-04-15 11:00:00 13.3 3 Este 8 Sudeste 0 -- -- 61
2019-04-15 10:00:00 9.3 3 Norte 8 Norte 0 -- -- 73
2019-04-15 09:00:00 6.5 0 Calma 4 Oeste 0 -- -- 83
2019-04-15 08:00:00 5.8 0 Calma 4 Nordeste 0 -- -- 84
2019-04-15 07:00:00 6.2 0 Calma 4 Nordeste 0 -- -- 81
2019-04-15 06:00:00 6.6 0 Calma 5 Sur 0 -- -- 81
2019-04-15 05:00:00 6.7 0 Calma 5 Este 0 -- -- 81
2019-04-15 04:00:00 7.5 0 Calma 4 Sudoeste 0 -- -- 77
2019-04-15 03:00:00 8.5 0 Calma 8 Nordeste 0 -- -- 74
2019-04-15 02:00:00 8.5 0 Calma 7 Este 0 -- -- 74
2019-04-15 01:00:00 9.1 0 Calma 6 Sudeste 0 -- -- 72
2019-04-15 00:00:00 10.1 2 Nordeste 13 Nordeste 0 -- -- 68
2019-04-14 23:00:00 11.5 3 Sudoeste 5 Sudoeste 0 -- -- 64
2019-04-14 22:00:00 12.6 3 Nordeste 10 Sudeste 0 -- -- 60
2019-04-14 21:00:00 16 3 Sudeste 22 Sudoeste 0 -- -- 50
2019-04-14 20:00:00 18.3 8 Sudoeste 27 Sudoeste 0 -- -- 43
2019-04-14 19:00:00 20.2 10 Sudoeste 35 Sudoeste 0 -- -- 39
2019-04-14 18:00:00 19.8 8 Sudoeste 28 Oeste 0 -- -- 42
2019-04-14 17:00:00 20 7 Noroeste 17 Noroeste 0 -- -- 41
2019-04-14 16:00:00 20.2 0 Calma 15 Sudoeste 0 -- -- 41
2019-04-14 15:00:00 19.5 7 Sudoeste 18 Sudoeste 0 -- -- 38
2019-04-14 14:00:00 18.4 13 Sudoeste 25 Sudoeste 0 -- -- 36
2019-04-14 13:00:00 17.3 15 Sudoeste 34 Sudoeste 0 -- -- 36
2019-04-14 12:00:00 17.1 13 Sudoeste 23 Sudoeste 0 -- -- 33
2019-04-14 11:00:00 9.1 2 Sudeste 10 Sudoeste 0 -- -- 48
2019-04-14 10:00:00 6.6 3 Sudoeste 10 Norte 0 -- -- 53
2019-04-14 09:00:00 4.9 2 Noroeste 11 Norte 0 -- -- 51
2019-04-14 08:00:00 3.4 0 Calma 5 Sudeste 0 -- -- 58
2019-04-14 07:00:00 3 2 Sur 9 Norte 0 -- -- 57
2019-04-14 06:00:00 3.2 0 Calma 4 Noroeste 0 -- -- 53
2019-04-14 05:00:00 2.9 0 Calma 7 Noroeste 0 -- -- 54
2019-04-14 04:00:00 3.3 3 Sudeste 10 Noroeste 0 -- -- 51
2019-04-14 03:00:00 4 3 Sur 10 Nordeste 0 -- -- 50
2019-04-14 02:00:00 4.7 2 Sudoeste 13 Noroeste 0 -- -- 46
2019-04-14 01:00:00 5.8 2 Este 10 Norte 0 -- -- 44
2019-04-14 00:00:00 5.9 2 Nordeste 6 Nordeste 0 -- -- 43
2019-04-13 23:00:00 6.8 0 Calma 6 Sudoeste 0 -- -- 45
2019-04-13 22:00:00 8.1 3 Sudeste 6 Norte 0 -- -- 39
2019-04-13 21:00:00 9.9 0 Calma 7 Este 0 -- -- 40
2019-04-13 20:00:00 15.1 2 Sur 19 Sudoeste 0 -- -- 27
2019-04-13 19:00:00 18.2 11 Sudoeste 26 Sudoeste 0 -- -- 24
2019-04-13 18:00:00 19.8 9 Sudoeste 25 Oeste 0 -- -- 12
2019-04-13 17:00:00 20.4 5 Norte 19 Sudoeste 0 -- -- 15
2019-04-13 16:00:00 20.2 5 Sur 31 Sudoeste 0 -- -- 12
2019-04-13 15:00:00 19.5 11 Sudoeste 26 Oeste 0 -- -- 11
2019-04-13 14:00:00 19.3 6 Oeste 21 Sudoeste 0 -- -- 16
2019-04-13 13:00:00 17.6 14 Sudoeste 22 Sudoeste 0 -- -- 14
2019-04-13 12:00:00 13.6 3 Norte 7 Norte 0 -- -- 25
2019-04-13 11:00:00 7.3 0 Calma 6 Norte 0 -- -- 39
2019-04-13 10:00:00 3 3 Nordeste 7 Norte 0 -- -- 50
2019-04-13 09:00:00 -0.5 0 Calma 5 Norte 0 -- -- 66
2019-04-13 08:00:00 -1 0 Calma 5 Norte 0 -- -- 63
2019-04-13 07:00:00 -0.8 0 Calma 5 Sur 0 -- -- 59
2019-04-13 06:00:00 0 0 Calma 5 Norte 0 -- -- 55
2019-04-13 05:00:00 0.9 0 Calma 6 Nordeste 0 -- -- 52
2019-04-13 04:00:00 1.6 3 Sudeste 8 Nordeste 0 -- -- 50
2019-04-13 03:00:00 2.1 2 Sudeste 8 Nordeste 0 -- -- 49
2019-04-13 02:00:00 3.1 0 Calma 5 Norte 0 -- -- 46
2019-04-13 01:00:00 3.7 0 Calma 7 Este 0 -- -- 46
2019-04-13 00:00:00 5.4 2 Nordeste 4 Nordeste 0 -- -- 42
2019-04-12 23:00:00 6.4 2 Nordeste 5 Sudeste 0 -- -- 43
2019-04-12 22:00:00 8.8 3 Sudeste 5 Sur 0 -- -- 39
2019-04-12 21:00:00 10.4 3 Sudeste 12 Oeste 0 -- -- 38
2019-04-12 20:00:00 12.2 2 Sudeste 19 Norte 0 -- -- 34
2019-04-12 19:00:00 15 9 Norte 25 Nordeste 0 -- -- 27
2019-04-12 18:00:00 15.9 11 Norte 31 Norte 0 -- -- 26
2019-04-12 17:00:00 17.2 10 Norte 33 Norte 0 -- -- 20
2019-04-12 16:00:00 18 8 Norte 31 Norte 0 -- -- 18
2019-04-12 15:00:00 17.4 8 Nordeste 21 Norte 0 -- -- 16
2019-04-12 14:00:00 17 6 Norte 22 Noroeste 0 -- -- 16
2019-04-12 13:00:00 16.6 6 Sur 21 Oeste 0 -- -- 16
2019-04-12 12:00:00 14.8 7 Sur 14 Sur 0 -- -- 19
2019-04-12 11:00:00 11.1 3 Sudeste 9 Sur 0 -- -- 26
2019-04-12 10:00:00 7 2 Norte 8 Nordeste 0 -- -- 46
2019-04-12 09:00:00 4.5 2 Nordeste 5 Este 0 -- -- 62
2019-04-12 08:00:00 4.6 3 Este 6 Sudeste 0 -- -- 58
2019-04-12 07:00:00 5.8 0 Calma 10 Sudeste 0 -- -- 58
2019-04-12 06:00:00 6.8 4 Este 13 Norte 0 -- -- 56
2019-04-12 05:00:00 6.9 3 Este 24 Norte 0 -- -- 57
2019-04-12 04:00:00 7.9 6 Noroeste 23 Noroeste 0 -- -- 52
2019-04-12 03:00:00 6.7 7 Oeste 21 Norte 0 -- -- 63
2019-04-12 02:00:00 6.5 3 Sudeste 10 Norte 0 -- -- 67
2019-04-12 01:00:00 4.7 3 Sur 6 Sudoeste 0 -- -- 76
2019-04-12 00:00:00 4.7 2 Sudeste 6 Nordeste 0 -- -- 78
2019-04-11 23:00:00 5.9 2 Sudoeste 8 Sudeste 0 -- -- 72
2019-04-11 22:00:00 6.8 0 Calma 4 Este 0 -- -- 69
2019-04-11 21:00:00 7.8 2 Sur 6 Nordeste 0 -- -- 64
2019-04-11 20:00:00 10.2 4 Norte 19 Oeste 0 -- -- 56
2019-04-11 19:00:00 10.7 9 Noroeste 31 Norte 0 -- -- 51
2019-04-11 18:00:00 12.1 4 Norte 23 Norte 0 -- -- 44
2019-04-11 17:00:00 12.4 7 Norte 22 Norte 0 -- -- 42
2019-04-11 16:00:00 13 8 Noroeste 19 Noroeste 0 -- -- 39
2019-04-11 15:00:00 12.7 8 Noroeste 21 Noroeste 0 -- -- 34
2019-04-11 14:00:00 12.4 9 Norte 24 Norte 0 -- -- 31
2019-04-11 13:00:00 12.3 9 Norte 27 Sudoeste 0 -- -- 31
2019-04-11 12:00:00 12.2 7 Norte 22 Norte 0 -- -- 30
2019-04-11 11:00:00 10.4 3 Sudeste 19 Norte 0 -- -- 35
2019-04-11 10:00:00 7.6 3 Nordeste 18 Norte 0 -- -- 40
2019-04-11 09:00:00 4.6 3 Nordeste 7 Nordeste 0 -- -- 57
2019-04-11 08:00:00 4.2 3 Nordeste 11 Este 0 -- -- 59
2019-04-11 07:00:00 5 3 Este 40 Sudeste 0 -- -- 54
2019-04-11 06:00:00 5.7 7 Sudeste 20 Sur 0 -- -- 51
2019-04-11 05:00:00 4.9 3 Este 9 Nordeste 0 -- -- 63
2019-04-11 04:00:00 5.7 4 Nordeste 21 Norte 0 -- -- 62
2019-04-11 03:00:00 7.2 5 Nordeste 18 Noroeste 0 -- -- 53
2019-04-11 02:00:00 7.2 3 Nordeste 8 Sur 0 -- -- 63
2019-04-11 01:00:00 6.8 3 Sur 18 Nordeste 0 -- -- 64
2019-04-11 00:00:00 6.9 2 Nordeste 18 Nordeste 0 -- -- 60
2019-04-10 23:00:00 6.3 3 Nordeste 7 Norte 0 -- -- 62
2019-04-10 22:00:00 6.8 2 Nordeste 13 Este 0 -- -- 60
2019-04-10 21:00:00 8.3 3 Nordeste 15 Nordeste 0 -- -- 51
2019-04-10 20:00:00 9.9 7 Nordeste 35 Oeste 0 -- -- 51
2019-04-10 19:00:00 12.2 12 Noroeste 24 Noroeste 0 -- -- 41
2019-04-10 18:00:00 14 4 Este 33 Oeste 0 -- -- 35
2019-04-10 17:00:00 14.8 9 Sudoeste 30 Norte 0 -- -- 34
2019-04-10 16:00:00 13.6 11 Nordeste 31 Norte 0 -- -- 39
2019-04-10 15:00:00 13.9 5 Norte 15 Nordeste 0 -- -- 41
2019-04-10 14:00:00 14.4 5 Norte 21 Norte 0 -- -- 37
2019-04-10 13:00:00 13.5 5 Norte 21 Nordeste 0 -- -- 37
2019-04-10 12:00:00 11.5 4 Norte 10 Norte 0 -- -- 50
2019-04-10 11:00:00 6.3 2 Nordeste 8 Norte 0 -- -- 82
2019-04-10 10:00:00 3 4 Norte 10 Norte 0 -- -- 96
2019-04-10 09:00:00 1.3 2 Este 6 Norte 0 -- -- 98
2019-04-10 08:00:00 0.8 0 Calma 7 Norte 0 -- -- 98
2019-04-10 07:00:00 0.8 2 Sudeste 4 Oeste 0 -- -- 97
2019-04-10 06:00:00 1 0 Calma 4 Nordeste 0 -- -- 98
2019-04-10 05:00:00 1.2 0 Calma 4 Sur 0 -- -- 98
2019-04-10 04:00:00 1.7 0 Calma 4 Sudeste 0 -- -- 97
2019-04-10 03:00:00 2.2 0 Calma 3 Sudeste 0 -- -- 97
2019-04-10 02:00:00 2.7 2 Este 4 Sudeste 0 -- -- 96
2019-04-10 01:00:00 3.5 0 Calma 4 Este 0 -- -- 95
2019-04-10 00:00:00 4.4 0 Calma 4 Sudeste 0 -- -- 95
2019-04-09 23:00:00 5.8 0 Calma 4 Sudeste 0.2 -- -- 93
2019-04-09 22:00:00 6.7 2 Sur 9 Norte 0.6 -- -- 89
2019-04-09 21:00:00 7.6 5 Nordeste 20 Noroeste 0.4 -- -- 77
2019-04-09 20:00:00 10 9 Nordeste 27 Norte 0 -- -- 57
2019-04-09 19:00:00 11 6 Nordeste 23 Norte 0.4 -- -- 64
2019-04-09 18:00:00 13.9 6 Norte 17 Norte 0 -- -- 45
2019-04-09 17:00:00 13.7 4 Nordeste 12 Norte 0 -- -- 46
2019-04-09 16:00:00 13.6 6 Norte 25 Sudoeste 0 -- -- 44
2019-04-09 15:00:00 14.7 9 Sur 30 Sudoeste 0 -- -- 40
2019-04-09 14:00:00 14.4 11 Sudoeste 32 Sudoeste 0 -- -- 42
2019-04-09 13:00:00 14.3 6 Sudoeste 22 Sudoeste 0 -- -- 44
2019-04-09 12:00:00 12.8 7 Sudoeste 22 Sudoeste 0 -- -- 52
2019-04-09 11:00:00 8.6 3 Norte 9 Norte 0 -- -- 71
2019-04-09 10:00:00 4.3 2 Norte 3 Noroeste 0 -- -- 90
2019-04-09 09:00:00 2.8 0 Calma 3 Sudeste 0 -- -- 95
2019-04-09 08:00:00 2.3 0 Calma 2 Sudeste 0 -- -- 94
2019-04-09 07:00:00 2.8 0 Calma 4 Sudoeste 0 -- -- 91
2019-04-09 06:00:00 3.5 0 Calma 4 Sur 0 -- -- 91
2019-04-09 05:00:00 3.7 0 Calma 5 Sudoeste 0 -- -- 90
2019-04-09 04:00:00 3.4 0 Calma 4 Este 0 -- -- 92
2019-04-09 03:00:00 3.4 2 Nordeste 4 Norte 0 -- -- 92
2019-04-09 02:00:00 3.5 0 Calma 4 Este 0 -- -- 90
2019-04-09 01:00:00 3.6 0 Calma 4 Este 0 -- -- 90
2019-04-09 00:00:00 4.3 2 Sur 4 Sudoeste 0 -- -- 85
2019-04-08 23:00:00 5.2 0 Calma 3 Este 0 -- -- 81
2019-04-08 22:00:00 6.4 0 Calma 5 Sur 0 -- -- 77
2019-04-08 21:00:00 8.6 3 Nordeste 9 Sudoeste 0 -- -- 71
2019-04-08 20:00:00 12.4 4 Oeste 22 Sudoeste 0 -- -- 55
2019-04-08 19:00:00 13.2 5 Sudoeste 23 Sudoeste 0 -- -- 54
2019-04-08 18:00:00 14.2 9 Sudoeste 24 Sudoeste 0 -- -- 51
2019-04-08 17:00:00 15.1 13 Sudoeste 31 Sudoeste 0 -- -- 50
2019-04-08 16:00:00 14.2 10 Sudoeste 23 Sudoeste 0 -- -- 52
2019-04-08 15:00:00 13.9 10 Sudoeste 24 Sudoeste 0 -- -- 50
2019-04-08 14:00:00 13.4 11 Sudoeste 19 Sudoeste 0 -- -- 50
2019-04-08 13:00:00 12.9 8 Sudoeste 16 Oeste 0 -- -- 50
2019-04-08 12:00:00 11 5 Sudoeste 14 Sudoeste 0 -- -- 54
2019-04-08 11:00:00 7.7 0 Calma 8 Norte 0 -- -- 65
2019-04-08 10:00:00 4.4 2 Norte 8 Norte 0 -- -- 80
2019-04-08 09:00:00 2.9 0 Calma 5 Norte 0 -- -- 92
2019-04-08 08:00:00 2.3 0 Calma 4 Sudoeste 0 -- -- 93
2019-04-08 07:00:00 1.8 0 Calma 6 Noroeste 0 -- -- 94
2019-04-08 06:00:00 1.4 0 Calma 4 Sudoeste 0 -- -- 95
2019-04-08 05:00:00 1.1 0 Calma 5 Sur 0 -- -- 94
2019-04-08 04:00:00 0.9 0 Calma 3 Sudeste 0 -- -- 93
2019-04-08 03:00:00 1.2 0 Calma 3 Sudeste 0 -- -- 94
2019-04-08 02:00:00 1.4 0 Calma 4 Sudeste 0 -- -- 93
2019-04-08 01:00:00 1.8 0 Calma 3 Sudeste 0 -- -- 93
2019-04-08 00:00:00 2.2 0 Calma 4 Sudeste 0 -- -- 91
2019-04-07 23:00:00 2.7 0 Calma 5 Este 0 -- -- 89
2019-04-07 22:00:00 4 0 Calma 4 Este 0 -- -- 83
2019-04-07 21:00:00 6 0 Calma 10 Sudoeste 0 -- -- 76
2019-04-07 20:00:00 7.4 2 Sudeste 4 Sur 0 -- -- 73
2019-04-07 19:00:00 10.1 2 Sur 12 Sudoeste 0 -- -- 59
2019-04-07 18:00:00 10.7 5 Sur 22 Sudoeste 0 -- -- 51
2019-04-07 17:00:00 11.4 13 Sudoeste 26 Sudoeste 0 -- -- 46
2019-04-07 16:00:00 12.3 10 Sudoeste 22 Sudoeste 0 -- -- 48
2019-04-07 15:00:00 12.5 8 Sudoeste 16 Sudoeste 0 -- -- 45
2019-04-07 14:00:00 12.4 4 Noroeste 11 Sudoeste 0 -- -- 49
2019-04-07 13:00:00 10.2 5 Sudoeste 12 Norte 0 -- -- 57
2019-04-07 12:00:00 6.2 2 Sudoeste 8 Norte 0 -- -- 80
2019-04-07 11:00:00 4.8 3 Nordeste 10 Norte 0 -- -- 88
2019-04-07 10:00:00 1.5 2 Nordeste 6 Norte 0 -- -- 100
2019-04-07 09:00:00 -0.4 0 Calma 4 Este 0 -- -- 100
2019-04-07 08:00:00 -0.4 0 Calma 3 Sudeste 0 -- -- 99
2019-04-07 07:00:00 0.2 0 Calma 5 Sudeste 0 -- -- 99
2019-04-07 06:00:00 0.8 0 Calma 3 Sur 0 -- -- 99
2019-04-07 05:00:00 1.2 0 Calma 4 Sudoeste 0 -- -- 98
2019-04-07 04:00:00 1.5 0 Calma 4 Sudoeste 0 -- -- 98
2019-04-07 03:00:00 1.5 2 Sur 4 Sur 0 -- -- 98
2019-04-07 02:00:00 1.5 2 Sur 3 Sur 0 -- -- 97
2019-04-07 01:00:00 1.6 0 Calma 3 Sudeste 0 -- -- 97
2019-04-07 00:00:00 1.7 0 Calma 6 Sur 3.2 -- -- 94
2019-04-06 23:00:00 3.2 0 Calma 4 Sur 0.6 -- -- 97
2019-04-06 22:00:00 2.9 0 Calma 5 Sudeste 0 -- -- 96
2019-04-06 21:00:00 3.7 2 Sudeste 4 Sur 0 -- -- 93
2019-04-06 20:00:00 4.8 2 Sudoeste 8 Oeste 0.2 -- -- 89
2019-04-06 19:00:00 4.7 3 Norte 10 Sudoeste 0.2 -- -- 86
2019-04-06 18:00:00 5.5 2 Este 22 Sudoeste 1.2 -- -- 84
2019-04-06 17:00:00 7.7 10 Sudoeste 21 Sudoeste 0 -- -- 60
2019-04-06 16:00:00 9.9 3 Noroeste 20 Sur 0 -- -- 56
2019-04-06 15:00:00 8.8 10 Sur 24 Sudeste 0 -- -- 57
2019-04-06 14:00:00 6.7 8 Sur 22 Sudoeste 0 -- -- 75
2019-04-06 13:00:00 4.2 3 Norte 9 Noroeste 0.4 -- -- 91
2019-04-06 12:00:00 2.7 0 Calma 4 Norte 0.2 -- -- 95
2019-04-06 11:00:00 1.3 0 Calma 3 Sudoeste 1 -- -- 97
2019-04-06 10:00:00 1.1 0 Calma 3 Sudeste 0.8 -- -- 98
2019-04-06 09:00:00 0.8 0 Calma 2 Sudeste 0.2 -- -- 99
2019-04-06 08:00:00 0.6 0 Calma 3 Este 0 -- -- 99
2019-04-06 07:00:00 0.4 0 Calma 2 Nordeste 0.8 -- -- 99
2019-04-06 06:00:00 0.4 0 Calma 3 Sudoeste 0.2 -- -- 99
2019-04-06 05:00:00 0.3 0 Calma 4 Sudeste 0.6 -- -- 98
2019-04-06 04:00:00 0.3 2 Nordeste 4 Norte 3.2 -- -- 98
2019-04-06 03:00:00 0.6 0 Calma 2 Sudoeste 2 -- -- 97
2019-04-06 02:00:00 1.2 2 Sudeste 4 Sudeste 1.4 -- -- 96
2019-04-06 01:00:00 1.7 0 Calma 3 Este 1.4 -- -- 96
2019-04-06 00:00:00 2.3 0 Calma 3 Sudeste 1.2 -- -- 95
2019-04-05 23:00:00 2.5 0 Calma 3 Nordeste 1.6 -- -- 95
2019-04-05 22:00:00 3.5 0 Calma 4 Sudeste 3 -- -- 94
2019-04-05 21:00:00 4.6 2 Sudeste 14 Sur 3.4 -- -- 88
2019-04-05 20:00:00 6.3 2 Sur 3 Sudeste 0.4 -- -- 92
2019-04-05 19:00:00 7 0 Calma 3 Oeste 0.2 -- -- 88
2019-04-05 18:00:00 7.2 2 Norte 4 Norte 0 -- -- 84
2019-04-05 17:00:00 7.4 0 Calma 4 Sudoeste 0 -- -- 75
2019-04-05 16:00:00 7.5 0 Calma 6 Oeste 0 -- -- 75
2019-04-05 15:00:00 6.5 0 Calma 6 Sudoeste 0.2 -- -- 82
2019-04-05 14:00:00 6.1 0 Calma 6 Oeste 0 -- -- 79
2019-04-05 13:00:00 5.5 2 Oeste 6 Sur 0 -- -- 85
2019-04-05 12:00:00 3.9 2 Sudoeste 4 Sur 0.2 -- -- 87
2019-04-05 11:00:00 3.7 0 Calma 6 Norte 0.4 -- -- 85
2019-04-05 10:00:00 4.2 2 Norte 8 Noroeste 0 -- -- 76
2019-04-05 09:00:00 3.6 0 Calma 4 Sudoeste 0 -- -- 71
2019-04-05 08:00:00 2.7 0 Calma 3 Sur 0 -- -- 72
2019-04-05 07:00:00 2.6 0 Calma 4 Sur 0 -- -- 73
2019-04-05 06:00:00 2.5 0 Calma 6 Sudoeste 0 -- -- 72
2019-04-05 05:00:00 2.4 0 Calma 5 Sudeste 0 -- -- 72
2019-04-05 04:00:00 1.9 2 Sur 7 Norte 0 -- -- 75
2019-04-05 03:00:00 1.6 0 Calma 5 Sudeste 0 -- -- 75
2019-04-05 02:00:00 1.4 3 Sudeste 4 Sur 0 -- -- 75
2019-04-05 01:00:00 0.9 0 Calma 4 Sudeste 0 -- -- 75
2019-04-05 00:00:00 1.2 2 Sudeste 5 Este 0 -- -- 72
2019-04-04 23:00:00 2.3 2 Sudeste 5 Este 0 -- -- 69
2019-04-04 22:00:00 4.1 0 Calma 9 Sur 0 -- -- 61
2019-04-04 21:00:00 6.5 3 Sudeste 13 Sudeste 0 -- -- 49
2019-04-04 20:00:00 8.2 5 Sur 15 Sudoeste 0 -- -- 49
2019-04-04 19:00:00 9.3 4 Sur 16 Sudeste 0 -- -- 43
2019-04-04 18:00:00 10.5 9 Sudoeste 27 Sudoeste 0 -- -- 37
2019-04-04 17:00:00 11.5 14 Sudoeste 27 Sudoeste 0 -- -- 31
2019-04-04 16:00:00 11.9 12 Sudoeste 31 Sur 0 -- -- 31
2019-04-04 15:00:00 11 11 Sudoeste 26 Sudoeste 0 -- -- 32
2019-04-04 14:00:00 9.9 10 Sudoeste 23 Sudoeste 0 -- -- 36
2019-04-04 13:00:00 9.1 11 Sudoeste 25 Sudoeste 0 -- -- 36
2019-04-04 12:00:00 6.7 12 Sudoeste 21 Sudoeste 0 -- -- 40
2019-04-04 11:00:00 1.6 3 Norte 5 Norte 0 -- -- 63
2019-04-04 10:00:00 -2.1 2 Norte 6 Nordeste 0 -- -- 88
2019-04-04 09:00:00 -3.7 0 Calma 4 Sudoeste 0 -- -- 92
2019-04-04 08:00:00 -3.8 2 Sudeste 3 Sudeste 0 -- -- 92
2019-04-04 07:00:00 -3.4 0 Calma 4 Sudeste 0 -- -- 91
2019-04-04 06:00:00 -3.2 0 Calma 4 Este 0 -- -- 91
2019-04-04 05:00:00 -2.8 0 Calma 5 Sudeste 0 -- -- 89
2019-04-04 04:00:00 -2.3 0 Calma 4 Sur 0 -- -- 85
2019-04-04 03:00:00 -1.5 0 Calma 5 Sudeste 0 -- -- 86
2019-04-04 02:00:00 -0.6 0 Calma 4 Este 0 -- -- 78
2019-04-04 01:00:00 0.4 3 Este 7 Sudeste 0 -- -- 77
2019-04-04 00:00:00 1.4 0 Calma 4 Sudoeste 0 -- -- 73
2019-04-03 23:00:00 4.1 2 Norte 14 Sudeste 0 -- -- 60
2019-04-03 22:00:00 5.6 3 Sudeste 25 Sur 0 -- -- 57
2019-04-03 21:00:00 7 9 Sur 29 Sur 0 -- -- 52
2019-04-03 20:00:00 7.9 7 Sur 24 Sur 0 -- -- 47
2019-04-03 19:00:00 8.7 6 Sur 16 Sudoeste 0 -- -- 50
2019-04-03 18:00:00 9.2 8 Sudoeste 27 Sudoeste 0 -- -- 50
2019-04-03 17:00:00 9.6 11 Sudoeste 26 Sudoeste 0 -- -- 53
2019-04-03 16:00:00 9.3 13 Sudoeste 33 Sudoeste 0 -- -- 60
2019-04-03 15:00:00 9 9 Sur 27 Sudoeste 0 -- -- 63
2019-04-03 14:00:00 9.4 10 Sur 26 Sudoeste 0 -- -- 66
2019-04-03 13:00:00 9.4 9 Sur 21 Sur 0 -- -- 64
2019-04-03 12:00:00 8.7 8 Sur 21 Sudoeste 0 -- -- 69
2019-04-03 11:00:00 7.4 3 Noroeste 9 Sudoeste 0 -- -- 93
2019-04-03 10:00:00 6.3 2 Noroeste 4 Oeste 0.6 -- -- 96
2019-04-03 09:00:00 5.7 0 Calma 5 Sur 0 -- -- 97
2019-04-03 08:00:00 5.4 0 Calma 5 Sudeste 1 -- -- 97
2019-04-03 07:00:00 5.4 0 Calma 8 Sudoeste 1 -- -- 96
2019-04-03 06:00:00 5.5 3 Nordeste 5 Sur 0 -- -- 94
2019-04-03 05:00:00 5.4 3 Sudoeste 6 Sudoeste 0 -- -- 93
2019-04-03 04:00:00 5.4 0 Calma 6 Sur 0 -- -- 89
2019-04-03 03:00:00 5.1 0 Calma 5 Sudoeste 0 -- -- 87
2019-04-03 02:00:00 4.8 2 Sur 5 Nordeste 0 -- -- 87
2019-04-03 01:00:00 4.5 0 Calma 5 Sudeste 0 -- -- 86
2019-04-03 00:00:00 5.1 0 Calma 5 Sur 0 -- -- 82
2019-04-02 23:00:00 5.7 0 Calma 4 Sudeste 0 -- -- 81
2019-04-02 22:00:00 7.4 2 Sudeste 4 Nordeste 0 -- -- 77
2019-04-02 21:00:00 9.6 0 Calma 5 Norte 0 -- -- 70
2019-04-02 20:00:00 11.9 0 Calma 4 Sudoeste 0 -- -- 67
2019-04-02 19:00:00 13.7 0 Calma 5 Oeste 0 -- -- 63
2019-04-02 18:00:00 14.7 3 Sudoeste 10 Norte 0 -- -- 49
2019-04-02 17:00:00 13.9 9 Sudoeste 30 Sudoeste 0 -- -- 52
2019-04-02 16:00:00 15.9 10 Sudoeste 34 Sudoeste 0 -- -- 44
2019-04-02 15:00:00 16.6 10 Sudoeste 33 Sudoeste 0 -- -- 43
2019-04-02 14:00:00 17.1 11 Sudoeste 26 Sudoeste 0 -- -- 40
2019-04-02 13:00:00 15.5 6 Sudoeste 22 Sudoeste 0 -- -- 53
2019-04-02 12:00:00 13.5 8 Sudoeste 20 Sudoeste 0.2 -- -- 60
2019-04-02 11:00:00 9.8 2 Norte 6 Noroeste 0 -- -- 83
2019-04-02 10:00:00 7.3 0 Calma 4 Norte 0 -- -- 95
2019-04-02 09:00:00 6 2 Sudeste 4 Nordeste 0 -- -- 98
2019-04-02 08:00:00 5.3 0 Calma 4 Sudeste 0 -- -- 97
2019-04-02 07:00:00 6.6 0 Calma 3 Sudeste 0 -- -- 95
2019-04-02 06:00:00 7.1 0 Calma 3 Sudeste 0.2 -- -- 94
2019-04-02 05:00:00 7.2 0 Calma 2 Norte 0 -- -- 91
2019-04-02 04:00:00 7.3 0 Calma 2 Sur 0 -- -- 90
2019-04-02 03:00:00 7.5 0 Calma 3 Nordeste 0 -- -- 89
2019-04-02 02:00:00 7.8 0 Calma 3 Sudeste 0 -- -- 88
2019-04-02 01:00:00 8 0 Calma 3 Sur 0 -- -- 87
2019-04-02 00:00:00 8.4 0 Calma 3 Norte 0 -- -- 84
2019-04-01 23:00:00 8.9 2 Sudeste 4 Norte 0 -- -- 84
2019-04-01 22:00:00 9.5 0 Calma 3 Nordeste 0 -- -- 82
2019-04-01 21:00:00 10.4 0 Calma 5 Nordeste 0 -- -- 79
2019-04-01 20:00:00 11.7 0 Calma 11 Nordeste 0 -- -- 70
2019-04-01 19:00:00 13.7 4 Sudeste 10 Norte 0 -- -- 64
2019-04-01 18:00:00 13.6 2 Norte 13 Sur 0 -- -- 73
2019-04-01 17:00:00 14.4 5 Oeste 17 Sudoeste 0 -- -- 54
2019-04-01 16:00:00 14.7 13 Sudoeste 24 Sudoeste 0 -- -- 53
2019-04-01 15:00:00 15 11 Sudoeste 18 Sudoeste 0 -- -- 53
2019-04-01 14:00:00 14.1 3 Norte 6 Sudoeste 0 -- -- 58
2019-04-01 13:00:00 12.4 3 Norte 5 Nordeste 0 -- -- 67
2019-04-01 12:00:00 10.7 3 Oeste 6 Sudoeste 0 -- -- 72
2019-04-01 11:00:00 9.7 0 Calma 4 Sudoeste 0 -- -- 76
2019-04-01 10:00:00 8.4 2 Sudoeste 4 Sudoeste 0 -- -- 78
2019-04-01 09:00:00 7.3 2 Sur 4 Sudoeste 0 -- -- 85
2019-04-01 08:00:00 6.6 0 Calma 4 Norte 0 -- -- 86
2019-04-01 07:00:00 6.7 0 Calma 3 Sur 0 -- -- 80
2019-04-01 06:00:00 6.4 0 Calma 5 Sudoeste 0 -- -- 83
2019-04-01 05:00:00 6.3 0 Calma 4 Sudeste 0 -- -- 82
2019-04-01 04:00:00 6.5 0 Calma 3 Sudeste 0 -- -- 81
2019-04-01 03:00:00 6.8 0 Calma 2 Nordeste 0 -- -- 79
2019-04-01 02:00:00 7 0 Calma 2 Este 0 -- -- 78
2019-04-01 01:00:00 7.5 0 Calma 2 Este 0 -- -- 75
2019-04-01 00:00:00 7.9 0 Calma 3 Sudeste 0 -- -- 73
2019-03-31 23:00:00 8.6 0 Calma 6 Sudeste 0 -- -- 71
2019-03-31 22:00:00 10.2 4 Sur 13 Sur 0 -- -- 66
2019-03-31 21:00:00 11.1 5 Sur 21 Sudoeste 0 -- -- 60
2019-03-31 20:00:00 12.4 10 Sudoeste 24 Sudoeste 0 -- -- 54
2019-03-31 19:00:00 13.8 8 Sudoeste 24 Sudoeste 0 -- -- 47
2019-03-31 18:00:00 14.4 12 Sudoeste 31 Sudoeste 0 -- -- 42
2019-03-31 17:00:00 15.4 15 Sudoeste 23 Sudoeste 0 -- -- 41
2019-03-31 16:00:00 14.5 18 Sudoeste 31 Sudoeste 0 -- -- 44
2019-03-31 15:00:00 14.1 18 Sudoeste 32 Sudoeste 0 -- -- 42
2019-03-31 14:00:00 13.4 15 Sudoeste 27 Sudoeste 0 -- -- 43
2019-03-31 13:00:00 13 14 Sudoeste 23 Sudoeste 0 -- -- 44
2019-03-31 12:00:00 10.8 4 Sudeste 8 Sudeste 0 -- -- 53
2019-03-31 11:00:00 6.7 0 Calma 4 Norte 0 -- -- 65
2019-03-31 10:00:00 3.4 2 Norte 5 Norte 0 -- -- 78
2019-03-31 09:00:00 1.4 0 Calma 5 Norte 0 -- -- 87
2019-03-31 08:00:00 1.2 0 Calma 8 Norte 0 -- -- 85
2019-03-31 07:00:00 1.4 0 Calma 5 Nordeste 0 -- -- 85
2019-03-31 06:00:00 1.5 0 Calma 3 Nordeste 0 -- -- 84
2019-03-31 05:00:00 1.9 2 Sudoeste 3 Sur 0 -- -- 84
2019-03-31 03:00:00 2.8 0 Calma 4 Norte 0 -- -- 83
2019-03-31 01:00:00 3.5 0 Calma 5 Sur 0 -- -- 81
2019-03-31 00:00:00 4.9 0 Calma 3 Este 0 -- -- 76
2019-03-30 23:00:00 6 0 Calma 3 Nordeste 0 -- -- 71
2019-03-30 22:00:00 7.2 0 Calma 3 Este 0 -- -- 70
2019-03-30 21:00:00 7.3 0 Calma 4 Sudeste 0 -- -- 67
2019-03-30 20:00:00 10.2 2 Sur 9 Sur 0 -- -- 57
2019-03-30 19:00:00 13.1 5 Sur 18 Sudoeste 0 -- -- 47
2019-03-30 18:00:00 14.4 11 Sudoeste 25 Sudoeste 0 -- -- 43
2019-03-30 17:00:00 15.3 15 Sudoeste 30 Sudoeste 0 -- -- 39
2019-03-30 16:00:00 16.1 12 Sudoeste 30 Sudoeste 0 -- -- 37
2019-03-30 15:00:00 15.9 14 Sudoeste 31 Sudoeste 0 -- -- 38
2019-03-30 14:00:00 15.7 15 Sudoeste 28 Sudoeste 0 -- -- 39
2019-03-30 13:00:00 14.5 17 Sudoeste 29 Sudoeste 0 -- -- 42
2019-03-30 12:00:00 13.6 12 Sudoeste 23 Sudoeste 0 -- -- 44
2019-03-30 11:00:00 10.7 4 Sudeste 13 Sudeste 0 -- -- 56
2019-03-30 10:00:00 6.2 2 Norte 7 Nordeste 0 -- -- 69
2019-03-30 09:00:00 3.1 3 Norte 5 Nordeste 0 -- -- 82
2019-03-30 08:00:00 1.4 0 Calma 3 Sudeste 0 -- -- 87
2019-03-30 07:00:00 1.5 0 Calma 3 Este 0 -- -- 85
2019-03-30 06:00:00 2.8 0 Calma 9 Nordeste 0 -- -- 80
2019-03-30 05:00:00 3.3 0 Calma 4 Norte 0 -- -- 79
2019-03-30 04:00:00 2.4 0 Calma 2 Norte 0 -- -- 86
2019-03-30 03:00:00 1.4 0 Calma 2 Sudoeste 0 -- -- 88
2019-03-30 02:00:00 1.9 0 Calma 2 Este 0 -- -- 84
2019-03-30 01:00:00 2.7 0 Calma 3 Este 0 -- -- 81
2019-03-30 00:00:00 4 0 Calma 3 Sur 0 -- -- 77
2019-03-29 23:00:00 5.1 0 Calma 6 Sudeste 0 -- -- 73
2019-03-29 22:00:00 5.6 0 Calma 4 Este 0 -- -- 71
2019-03-29 21:00:00 6.1 0 Calma 4 Sudoeste 0 -- -- 68
2019-03-29 20:00:00 7.4 0 Calma 4 Sudeste 0 -- -- 62
2019-03-29 19:00:00 11.1 0 Calma 12 Sudoeste 0 -- -- 52
2019-03-29 18:00:00 13.2 4 Sudoeste 12 Sudoeste 0 -- -- 42
2019-03-29 17:00:00 13.4 4 Sudoeste 17 Sudoeste 0 -- -- 42
2019-03-29 16:00:00 13.4 11 Sudoeste 23 Sudoeste 0 -- -- 42
2019-03-29 15:00:00 14.5 6 Sudoeste 18 Sur 0 -- -- 40
2019-03-29 14:00:00 13.1 6 Sur 21 Sudoeste 0 -- -- 44
2019-03-29 13:00:00 12.8 9 Sudoeste 20 Sudoeste 0 -- -- 45
2019-03-29 12:00:00 12.5 13 Sudoeste 19 Sur 0 -- -- 44
2019-03-29 11:00:00 10.9 3 Norte 7 Nordeste 0 -- -- 52
2019-03-29 10:00:00 8.5 4 Norte 8 Norte 0 -- -- 58
2019-03-29 09:00:00 6.1 0 Calma 5 Sudoeste 0 -- -- 71
2019-03-29 08:00:00 4.6 0 Calma 4 Sudoeste 0 -- -- 77
2019-03-29 07:00:00 4 0 Calma 4 Nordeste 0 -- -- 76
2019-03-29 06:00:00 4.5 0 Calma 3 Sur 0 -- -- 74
2019-03-29 05:00:00 4.5 0 Calma 4 Noroeste 0 -- -- 74
2019-03-29 04:00:00 3.9 0 Calma 4 Sur 0 -- -- 76
2019-03-29 03:00:00 2.9 0 Calma 3 Norte 0 -- -- 82
2019-03-29 02:00:00 2.5 0 Calma 4 Este 0 -- -- 79
2019-03-29 01:00:00 3 0 Calma 4 Este 0 -- -- 78
2019-03-29 00:00:00 3.8 0 Calma 3 Norte 0 -- -- 75
2019-03-28 23:00:00 4.9 0 Calma 3 Este 0 -- -- 71
2019-03-28 22:00:00 5.7 0 Calma 4 Sur 0 -- -- 68
2019-03-28 21:00:00 7.9 0 Calma 4 Nordeste 0 -- -- 61
2019-03-28 20:00:00 9.9 2 Sur 17 Sudoeste 0 -- -- 55
2019-03-28 19:00:00 13.2 4 Sudoeste 21 Oeste 0 -- -- 45
2019-03-28 18:00:00 15.4 13 Sudoeste 26 Oeste 0 -- -- 41
2019-03-28 17:00:00 16.5 9 Sudoeste 28 Sur 0 -- -- 37
2019-03-28 16:00:00 17.1 9 Sur 26 Sur 0 -- -- 36
2019-03-28 15:00:00 17 14 Sudoeste 32 Sudoeste 0 -- -- 34
2019-03-28 14:00:00 16.6 15 Sudoeste 29 Sudoeste 0 -- -- 33
2019-03-28 13:00:00 15.5 15 Sudoeste 27 Sudoeste 0 -- -- 32
2019-03-28 12:00:00 14.4 13 Sudoeste 24 Sudoeste 0 -- -- 36
2019-03-28 11:00:00 9.9 5 Norte 9 Nordeste 0 -- -- 45
2019-03-28 10:00:00 4.9 2 Norte 7 Nordeste 0 -- -- 51
2019-03-28 09:00:00 1.3 2 Norte 5 Norte 0 -- -- 62
2019-03-28 08:00:00 -0.8 0 Calma 6 Nordeste 0 -- -- 70
2019-03-28 07:00:00 -0.7 0 Calma 4 Sur 0 -- -- 68
2019-03-28 06:00:00 -0.1 0 Calma 8 Noroeste 0 -- -- 65
2019-03-28 05:00:00 0.5 0 Calma 3 Este 0 -- -- 62
2019-03-28 04:00:00 1.2 0 Calma 3 Este 0 -- -- 59
2019-03-28 03:00:00 1.6 0 Calma 4 Este 0 -- -- 57
2019-03-28 02:00:00 2.6 0 Calma 5 Sudoeste 0 -- -- 54
2019-03-28 01:00:00 3.2 0 Calma 4 Este 0 -- -- 52
2019-03-28 00:00:00 4.1 0 Calma 4 Nordeste 0 -- -- 49
2019-03-27 23:00:00 5.1 2 Este 4 Sudeste 0 -- -- 46
2019-03-27 22:00:00 6.1 3 Este 6 Este 0 -- -- 46
2019-03-27 21:00:00 7.8 0 Calma 7 Sudeste 0 -- -- 43
2019-03-27 20:00:00 10.4 5 Sudeste 12 Sudoeste 0 -- -- 35
2019-03-27 19:00:00 13.7 5 Sudoeste 16 Sur 0 -- -- 27
2019-03-27 18:00:00 16.2 8 Sudoeste 21 Sudoeste 0 -- -- 35
2019-03-27 17:00:00 17.2 12 Sudoeste 24 Sudoeste 0 -- -- 34
2019-03-27 16:00:00 17.8 12 Sudoeste 27 Sudoeste 0 -- -- 31
2019-03-27 15:00:00 17.7 16 Sudoeste 28 Sudoeste 0 -- -- 26
2019-03-27 14:00:00 17.1 17 Sudoeste 32 Sudoeste 0 -- -- 26
2019-03-27 13:00:00 16.1 19 Sudoeste 29 Sudoeste 0 -- -- 25
2019-03-27 12:00:00 14.7 11 Sudoeste 23 Sudoeste 0 -- -- 26
2019-03-27 11:00:00 10 5 Norte 10 Norte 0 -- -- 31
2019-03-27 10:00:00 4.5 0 Calma 8 Norte 0 -- -- 32
2019-03-27 09:00:00 -0.6 2 Sudoeste 7 Norte 0 -- -- 54
2019-03-27 08:00:00 -2.1 2 Este 6 Sudeste 0 -- -- 57
2019-03-27 07:00:00 -2.1 2 Sudeste 9 Sudeste 0 -- -- 50
2019-03-27 06:00:00 -2.4 2 Sur 6 Sur 0 -- -- 52
2019-03-27 05:00:00 -1.9 0 Calma 8 Sudeste 0 -- -- 51
2019-03-27 04:00:00 -1.7 3 Este 6 Sudeste 0 -- -- 52
2019-03-27 03:00:00 -0.9 2 Nordeste 5 Norte 0 -- -- 43
2019-03-27 02:00:00 0.3 2 Nordeste 6 Sudeste 0 -- -- 42
2019-03-27 01:00:00 1.4 0 Calma 6 Sudeste 0 -- -- 38
2019-03-27 00:00:00 2.9 3 Sudeste 6 Sur 0 -- -- 30
2019-03-26 23:00:00 4.8 0 Calma 6 Norte 0 -- -- 28
2019-03-26 22:00:00 6.7 2 Este 7 Norte 0 -- -- 23
2019-03-26 21:00:00 8.7 3 Este 24 Nordeste 0 -- -- 19
2019-03-26 20:00:00 9.5 5 Este 14 Nordeste 0 -- -- 18
2019-03-26 19:00:00 11.7 5 Oeste 19 Este 0 -- -- 20
2019-03-26 18:00:00 14.4 7 Nordeste 25 Norte 0 -- -- 16
2019-03-26 17:00:00 15.7 9 Nordeste 32 Nordeste 0 -- -- 15
2019-03-26 16:00:00 17.1 6 Nordeste 38 Nordeste 0 -- -- 13
2019-03-26 15:00:00 17.3 9 Nordeste 31 Nordeste 0 -- -- 13
2019-03-26 14:00:00 17.5 8 Nordeste 32 Nordeste 0 -- -- 10
2019-03-26 13:00:00 16.9 8 Nordeste 37 Nordeste 0 -- -- 9
2019-03-26 12:00:00 16.3 7 Norte 32 Norte 0 -- -- 10
2019-03-26 11:00:00 13.6 9 Nordeste 32 Norte 0 -- -- 8
2019-03-26 10:00:00 10.8 4 Norte 12 Sur 0 -- -- 14
2019-03-26 09:00:00 2.9 4 Sudoeste 11 Sudoeste 0 -- -- 35
2019-03-26 08:00:00 1.5 3 Sur 7 Sur 0 -- -- 36
2019-03-26 07:00:00 2.6 3 Sur 10 Oeste 0 -- -- 35
2019-03-26 06:00:00 2.4 3 Sur 9 Sur 0 -- -- 41
2019-03-26 05:00:00 2.4 2 Sudeste 6 Norte 0 -- -- 44
2019-03-26 04:00:00 4.1 2 Sur 8 Sur 0 -- -- 41
2019-03-26 03:00:00 4.2 3 Sur 7 Este 0 -- -- 48
2019-03-26 02:00:00 5.7 3 Nordeste 9 Sudoeste 0 -- -- 44
2019-03-26 01:00:00 7.5 5 Sur 17 Sudeste 0 -- -- 41
2019-03-26 00:00:00 7.9 4 Sudeste 14 Sudeste 0 -- -- 43
2019-03-25 23:00:00 7.7 2 Sudeste 14 Sur 0 -- -- 47
2019-03-25 22:00:00 8.7 2 Sudeste 12 Sudeste 0 -- -- 44
2019-03-25 21:00:00 9.3 2 Sur 11 Sudeste 0 -- -- 43
2019-03-25 20:00:00 10.5 4 Sur 22 Sur 0 -- -- 38
2019-03-25 19:00:00 12.6 4 Sur 23 Noroeste 0 -- -- 32
2019-03-25 18:00:00 15.7 8 Sudoeste 28 Noroeste 0 -- -- 26
2019-03-25 17:00:00 16.8 13 Norte 33 Noroeste 0 -- -- 20
2019-03-25 16:00:00 18.5 10 Noroeste 34 Noroeste 0 -- -- 15
2019-03-25 15:00:00 18.4 14 Noroeste 33 Oeste 0 -- -- 14
2019-03-25 14:00:00 19 16 Noroeste 30 Noroeste 0 -- -- 15
2019-03-25 13:00:00 19.1 11 Sudoeste 25 Sudoeste 0 -- -- 32
2019-03-25 12:00:00 17.7 13 Sudoeste 23 Sudoeste 0 -- -- 35
2019-03-25 11:00:00 13.1 4 Sudoeste 8 Sudoeste 0 -- -- 50
2019-03-25 10:00:00 7.4 0 Calma 6 Norte 0 -- -- 61
2019-03-25 09:00:00 4.7 3 Nordeste 6 Nordeste 0 -- -- 73
2019-03-25 08:00:00 3.1 0 Calma 8 Nordeste 0 -- -- 77
2019-03-25 07:00:00 3.1 0 Calma 5 Sudeste 0 -- -- 78
2019-03-25 06:00:00 4 0 Calma 4 Sudeste 0 -- -- 74
2019-03-25 05:00:00 4.5 0 Calma 6 Noroeste 0 -- -- 73
2019-03-25 04:00:00 5.3 0 Calma 4 Norte 0 -- -- 69
2019-03-25 03:00:00 5.8 0 Calma 4 Nordeste 0 -- -- 67
2019-03-25 02:00:00 6.9 0 Calma 4 Este 0 -- -- 64
2019-03-25 01:00:00 7.8 0 Calma 5 Nordeste 0 -- -- 61
2019-03-25 00:00:00 8.4 0 Calma 5 Este 0 -- -- 60